createdAt,value
2022-12-02T00:01:45.827Z,101854.81
2022-12-02T00:04:30.922Z,101853.38
2022-12-02T00:07:20.173Z,101857.78
2022-12-02T00:10:28.856Z,101852.34
2022-12-02T00:13:42.104Z,101851.06
2022-12-02T00:16:27.544Z,101854.88
2022-12-02T00:19:12.389Z,101837.63
2022-12-02T00:21:57.522Z,101840.41
2022-12-02T00:24:42.586Z,101840.91
2022-12-02T00:27:27.822Z,101843.34
2022-12-02T00:30:12.895Z,101854.34
2022-12-02T00:32:57.891Z,101843.19
2022-12-02T00:35:42.994Z,101843.25
2022-12-02T00:38:28.245Z,101836.81
2022-12-02T00:41:13.038Z,101831.81
2022-12-02T00:44:16.808Z,101831.63
2022-12-02T00:47:01.913Z,101834.25
2022-12-02T00:49:46.947Z,101830.03
2022-12-02T00:52:32.130Z,101827.69
2022-12-02T00:55:17.706Z,101830.78
2022-12-02T00:58:02.610Z,101829.47
2022-12-02T01:00:47.929Z,101822.53
2022-12-02T01:03:33.031Z,101821.38
2022-12-02T01:06:18.015Z,101819.34
2022-12-02T01:09:03.187Z,101821.28
2022-12-02T01:11:48.337Z,101825.06
2022-12-02T01:14:33.709Z,101822.31
2022-12-02T01:17:18.873Z,101820.13
2022-12-02T01:20:04.301Z,101818.03
2022-12-02T01:22:49.167Z,101820.59
2022-12-02T01:25:34.434Z,101831.53
2022-12-02T01:28:19.371Z,101830.94
2022-12-02T01:31:04.557Z,101828.09
2022-12-02T01:33:49.595Z,101828.44
2022-12-02T01:36:34.614Z,101824.53
2022-12-02T01:39:19.435Z,101829.66
2022-12-02T01:42:05.195Z,101823.56
2022-12-02T01:44:50.558Z,101821.13
2022-12-02T01:47:36.952Z,101831.00
2022-12-02T01:50:22.277Z,101825.88
2022-12-02T01:53:07.282Z,101817.50
2022-12-02T01:55:52.303Z,101822.00
2022-12-02T01:58:37.493Z,101812.56
2022-12-02T02:01:24.992Z,101816.19
2022-12-02T02:04:11.855Z,101819.50
2022-12-02T02:06:56.870Z,101814.72
2022-12-02T02:09:41.918Z,101816.41
2022-12-02T02:12:27.197Z,101816.34
2022-12-02T02:15:14.029Z,101813.16
2022-12-02T02:18:04.652Z,101813.81
2022-12-02T02:20:50.924Z,101816.19
2022-12-02T02:23:36.685Z,101813.41
2022-12-02T02:26:22.387Z,101813.75
2022-12-02T02:29:07.653Z,101809.59
2022-12-02T02:31:52.738Z,101812.09
2022-12-02T02:34:37.966Z,101799.63
2022-12-02T02:37:24.507Z,101805.28
2022-12-02T02:40:11.745Z,101802.94
2022-12-02T02:43:01.000Z,101797.22
2022-12-02T02:45:46.753Z,101789.91
2022-12-02T02:48:31.960Z,101788.19
2022-12-02T02:51:17.543Z,101784.13
2022-12-02T02:54:02.494Z,101778.13
2022-12-02T02:56:48.075Z,101781.19
2022-12-02T02:59:33.238Z,101770.25
2022-12-02T03:02:18.157Z,101778.50
2022-12-02T03:05:05.118Z,101764.53
2022-12-02T03:07:51.218Z,101757.66
2022-12-02T03:10:36.515Z,101766.84
2022-12-02T03:13:21.843Z,101762.47
2022-12-02T03:16:10.196Z,101767.00
2022-12-02T03:18:56.854Z,101763.63
2022-12-02T03:21:42.320Z,101753.75
2022-12-02T03:24:28.297Z,101753.28
2022-12-02T03:27:14.061Z,101755.53
2022-12-02T03:29:59.383Z,101759.25
2022-12-02T03:32:44.375Z,101766.13
2022-12-02T03:35:29.384Z,101760.34
2022-12-02T03:38:14.786Z,101756.25
2022-12-02T03:41:02.302Z,101751.53
2022-12-02T03:43:47.360Z,101746.31
2022-12-02T03:46:32.920Z,101750.16
2022-12-02T03:49:19.161Z,101751.50
2022-12-02T03:52:04.678Z,101743.25
2022-12-02T03:54:54.875Z,101736.13
2022-12-02T03:57:42.064Z,101728.16
2022-12-02T04:00:26.835Z,101726.97
2022-12-02T04:03:11.731Z,101722.53
2022-12-02T04:05:56.817Z,101722.91
2022-12-02T04:08:41.891Z,101710.53
2022-12-02T04:11:26.911Z,101707.63
2022-12-02T04:14:11.629Z,101709.75
2022-12-02T04:16:56.783Z,101697.03
2022-12-02T04:19:41.833Z,101691.03
2022-12-02T04:22:27.001Z,101693.09
2022-12-02T04:25:12.252Z,101693.31
2022-12-02T04:27:57.262Z,101697.94
2022-12-02T04:30:42.396Z,101704.88
2022-12-02T04:33:27.343Z,101697.06
2022-12-02T04:36:12.131Z,101694.00
2022-12-02T04:38:57.275Z,101692.66
2022-12-02T04:41:42.311Z,101688.56
2022-12-02T04:44:27.617Z,101690.41
2022-12-02T04:47:12.383Z,101700.81
2022-12-02T04:49:57.710Z,101696.44
2022-12-02T04:52:42.502Z,101687.22
2022-12-02T04:55:27.756Z,101692.66
2022-12-02T04:58:13.362Z,101692.97
2022-12-02T05:00:58.417Z,101688.72
2022-12-02T05:03:43.620Z,101686.78
2022-12-02T05:06:28.703Z,101686.78
2022-12-02T05:09:13.654Z,101679.13
2022-12-02T05:11:58.680Z,101685.09
2022-12-02T05:14:43.894Z,101685.84
2022-12-02T05:17:30.737Z,101677.22
2022-12-02T05:20:15.876Z,101686.19
2022-12-02T05:23:01.020Z,101685.16
2022-12-02T05:25:45.968Z,101684.16
2022-12-02T05:28:31.061Z,101676.69
2022-12-02T05:31:15.837Z,101670.97
2022-12-02T05:34:00.994Z,101677.22
2022-12-02T05:36:46.229Z,101668.03
2022-12-02T05:39:31.023Z,101676.16
2022-12-02T05:42:16.249Z,101671.78
2022-12-02T05:45:06.796Z,101667.81
2022-12-02T05:47:54.569Z,101671.19
2022-12-02T05:50:41.091Z,101667.28
2022-12-02T05:53:27.912Z,101666.00
2022-12-02T05:56:27.966Z,101671.59
2022-12-02T05:59:19.148Z,101668.44
2022-12-02T06:02:21.108Z,101661.03
2022-12-02T06:05:25.580Z,101662.88
2022-12-02T06:08:22.298Z,101669.50
2022-12-02T06:11:34.386Z,101671.75
2022-12-02T06:14:24.947Z,101671.31
2022-12-02T06:17:18.091Z,101664.69
2022-12-02T06:20:05.348Z,101663.47
2022-12-02T06:22:50.438Z,101659.44
2022-12-02T06:25:36.536Z,101655.50
2022-12-02T06:28:38.992Z,101657.63
2022-12-02T06:31:31.109Z,101650.38
2022-12-02T06:34:38.422Z,101659.44
2022-12-02T06:37:28.661Z,101649.72
2022-12-02T06:40:40.063Z,101654.09
2022-12-02T06:43:29.550Z,101653.97
2022-12-02T06:46:20.232Z,101655.06
2022-12-02T06:49:21.113Z,101656.63
2022-12-02T06:52:21.133Z,101659.47
2022-12-02T06:55:30.826Z,101655.34
2022-12-02T06:58:34.117Z,101659.41
2022-12-02T07:01:27.876Z,101660.25
2022-12-02T07:04:35.509Z,101655.66
2022-12-02T07:07:21.548Z,101651.53
2022-12-02T07:10:21.411Z,101655.34
2022-12-02T07:13:13.756Z,101658.16
2022-12-02T07:15:59.164Z,101652.78
2022-12-02T07:18:44.668Z,101657.84
2022-12-02T07:21:30.233Z,101663.94
2022-12-02T07:24:18.659Z,101666.84
2022-12-02T07:27:30.901Z,101663.44
2022-12-02T07:30:34.687Z,101670.94
2022-12-02T07:33:19.658Z,101664.78
2022-12-02T07:36:05.171Z,101672.72
2022-12-02T07:39:06.820Z,101669.53
2022-12-02T07:41:52.241Z,101667.28
2022-12-02T07:44:38.047Z,101670.88
2022-12-02T07:47:23.213Z,101671.88
2022-12-02T07:50:09.809Z,101673.94
2022-12-02T07:52:54.915Z,101669.91
2022-12-02T07:55:40.139Z,101673.34
2022-12-02T07:58:42.054Z,101665.28
2022-12-02T08:01:30.276Z,101673.41
2022-12-02T08:04:15.469Z,101665.84
2022-12-02T08:07:00.262Z,101675.84
2022-12-02T08:09:45.390Z,101677.34
2022-12-02T08:12:30.564Z,101671.47
2022-12-02T08:15:15.920Z,101673.91
2022-12-02T08:18:01.250Z,101669.31
2022-12-02T08:20:46.387Z,101665.78
2022-12-02T08:23:31.427Z,101664.25
2022-12-02T08:26:16.255Z,101673.88
2022-12-02T08:29:01.552Z,101672.00
2022-12-02T08:31:46.670Z,101667.81
2022-12-02T08:34:31.996Z,101672.69
2022-12-02T08:37:17.173Z,101674.19
2022-12-02T08:40:02.382Z,101670.25
2022-12-02T08:42:47.597Z,101674.53
2022-12-02T08:45:32.652Z,101677.28
2022-12-02T08:48:17.487Z,101672.53
2022-12-02T08:51:03.495Z,101668.91
2022-12-02T08:53:48.598Z,101672.53
2022-12-02T08:56:33.468Z,101664.59
2022-12-02T08:59:18.854Z,101666.44
2022-12-02T09:02:04.105Z,101664.09
2022-12-02T09:04:49.257Z,101672.13
2022-12-02T09:07:34.330Z,101668.91
2022-12-02T09:10:19.181Z,101675.44
2022-12-02T09:13:04.186Z,101673.72
2022-12-02T09:15:49.417Z,101676.25
2022-12-02T09:18:34.666Z,101673.28
2022-12-02T09:21:19.588Z,101673.47
2022-12-02T09:24:04.836Z,101671.94
2022-12-02T09:26:49.845Z,101668.31
2022-12-02T09:29:35.014Z,101672.41
2022-12-02T09:32:19.871Z,101673.66
2022-12-02T09:35:05.621Z,101668.22
2022-12-02T09:37:50.642Z,101666.78
2022-12-02T09:40:36.081Z,101669.13
2022-12-02T09:43:21.236Z,101660.38
2022-12-02T09:46:06.426Z,101663.16
2022-12-02T09:48:51.754Z,101656.63
2022-12-02T09:51:36.736Z,101664.78
2022-12-02T09:54:21.979Z,101658.22
2022-12-02T09:57:15.410Z,101652.88
2022-12-02T10:00:05.951Z,101650.56
2022-12-02T10:02:53.491Z,101657.09
2022-12-02T10:05:38.747Z,101659.19
2022-12-02T10:08:27.158Z,101653.16
2022-12-02T10:11:27.287Z,101662.72
2022-12-02T10:14:14.022Z,101646.69
2022-12-02T10:16:59.520Z,101651.28
2022-12-02T10:19:49.542Z,101641.75
2022-12-02T10:23:06.473Z,101639.50
2022-12-02T10:26:06.769Z,101636.78
2022-12-02T10:29:06.314Z,101632.84
2022-12-02T10:32:21.846Z,101628.72
2022-12-02T10:35:10.221Z,101622.38
2022-12-02T10:37:55.430Z,101619.56
2022-12-02T10:40:40.226Z,101623.09
2022-12-02T10:43:25.279Z,101622.72
2022-12-02T10:46:16.961Z,101614.75
2022-12-02T10:49:15.523Z,101613.72
2022-12-02T10:52:07.470Z,101607.19
2022-12-02T10:54:54.545Z,101612.06
2022-12-02T10:57:42.147Z,101608.41
2022-12-02T11:00:27.108Z,101601.94
2022-12-02T11:03:12.134Z,101605.94
2022-12-02T11:05:59.159Z,101605.56
2022-12-02T11:08:45.559Z,101599.16
2022-12-02T11:11:30.445Z,101593.28
2022-12-02T11:14:40.005Z,101589.97
2022-12-02T11:17:51.445Z,101589.03
2022-12-02T11:20:44.050Z,101588.97
2022-12-02T11:23:30.193Z,101592.13
2022-12-02T11:26:15.711Z,101581.00
2022-12-02T11:29:14.796Z,101586.16
2022-12-02T11:32:18.845Z,101574.44
2022-12-02T11:35:21.365Z,101579.94
2022-12-02T11:38:20.618Z,101571.41
2022-12-02T11:41:05.560Z,101560.31
2022-12-02T11:43:59.631Z,101563.19
2022-12-02T11:46:49.966Z,101562.47
2022-12-02T11:49:37.997Z,101549.34
2022-12-02T11:52:25.196Z,101558.06
2022-12-02T11:55:23.467Z,101550.59
2022-12-02T11:58:37.755Z,101544.31
2022-12-02T12:01:23.401Z,101542.81
2022-12-02T12:04:23.018Z,101540.66
2022-12-02T12:07:08.309Z,101544.97
2022-12-02T12:09:58.435Z,101543.19
2022-12-02T12:13:16.040Z,101535.31
2022-12-02T12:16:02.589Z,101531.13
2022-12-02T12:18:48.683Z,101523.59
2022-12-02T12:21:33.746Z,101526.03
2022-12-02T12:24:19.785Z,101521.63
2022-12-02T12:27:05.031Z,101525.97
2022-12-02T12:29:49.977Z,101521.97
2022-12-02T12:32:35.198Z,101529.94
2022-12-02T12:35:20.404Z,101515.69
2022-12-02T12:38:05.361Z,101521.88
2022-12-02T12:40:50.654Z,101509.03
2022-12-02T12:43:35.682Z,101512.16
2022-12-02T12:46:20.457Z,101499.91
2022-12-02T12:49:05.930Z,101502.53
2022-12-02T12:51:50.768Z,101511.53
2022-12-02T12:54:35.997Z,101509.16
2022-12-02T12:57:21.102Z,101505.81
2022-12-02T13:00:06.734Z,101507.88
2022-12-02T13:02:51.640Z,101497.94
2022-12-02T13:05:36.641Z,101500.88
2022-12-02T13:08:21.607Z,101500.25
2022-12-02T13:11:06.353Z,101491.19
2022-12-02T13:13:51.466Z,101489.88
2022-12-02T13:16:36.774Z,101486.41
2022-12-02T13:19:22.144Z,101492.69
2022-12-02T13:22:07.161Z,101486.50
2022-12-02T13:24:52.226Z,101484.09
2022-12-02T13:27:37.718Z,101492.22
2022-12-02T13:30:23.898Z,101484.38
2022-12-02T13:33:09.290Z,101485.94
2022-12-02T13:35:54.067Z,101487.09
2022-12-02T13:38:39.283Z,101488.69
2022-12-02T13:41:24.593Z,101497.28
2022-12-02T13:44:09.441Z,101490.41
2022-12-02T13:46:54.588Z,101491.53
2022-12-02T13:49:39.632Z,101488.34
2022-12-02T13:52:25.337Z,101503.22
2022-12-02T13:55:10.137Z,101498.31
2022-12-02T13:57:55.289Z,101496.19
2022-12-02T14:00:40.760Z,101492.38
2022-12-02T14:03:26.023Z,101499.00
2022-12-02T14:06:11.148Z,101502.59
2022-12-02T14:08:56.183Z,101500.56
2022-12-02T14:11:41.294Z,101502.50
2022-12-02T14:14:26.502Z,101500.97
2022-12-02T14:17:11.555Z,101511.19
2022-12-02T14:19:56.650Z,101513.22
2022-12-02T14:22:41.765Z,101515.22
2022-12-02T14:25:26.932Z,101512.50
2022-12-02T14:28:11.829Z,101516.44
2022-12-02T14:30:57.092Z,101516.13
2022-12-02T14:34:10.221Z,101525.09
2022-12-02T14:36:46.694Z,101510.53
2022-12-02T14:39:32.133Z,101512.59
2022-12-02T14:42:17.295Z,101509.13
2022-12-02T14:45:02.456Z,101497.72
2022-12-02T14:47:47.586Z,101503.06
2022-12-02T14:50:32.891Z,101494.34
2022-12-02T14:53:17.690Z,101499.59
2022-12-02T14:56:02.849Z,101500.25
2022-12-02T14:58:48.717Z,101496.78
2022-12-02T15:01:33.422Z,101496.03
2022-12-02T15:04:18.448Z,101495.00
2022-12-02T15:07:03.838Z,101506.03
2022-12-02T15:09:48.870Z,101501.63
2022-12-02T15:12:34.212Z,101501.63
2022-12-02T15:18:24.018Z,101499.56
2022-12-02T15:21:13.366Z,101506.94
2022-12-02T15:23:58.759Z,101507.25
2022-12-02T15:26:43.960Z,101511.38
2022-12-02T15:29:29.398Z,101510.53
2022-12-02T15:32:19.112Z,101509.88
2022-12-02T15:35:04.923Z,101514.75
2022-12-02T15:37:49.836Z,101506.59
2022-12-02T15:40:34.909Z,101511.75
2022-12-02T15:43:19.938Z,101515.31
2022-12-02T15:46:05.009Z,101525.91
2022-12-02T15:48:50.326Z,101519.91
2022-12-02T15:51:35.252Z,101527.88
2022-12-02T15:54:20.276Z,101526.66
2022-12-02T15:57:05.570Z,101517.31
2022-12-02T15:59:50.669Z,101525.44
2022-12-02T16:02:36.096Z,101521.34
2022-12-02T16:05:21.042Z,101533.28
2022-12-02T16:08:06.284Z,101526.28
2022-12-02T16:10:51.293Z,101523.13
2022-12-02T16:13:36.449Z,101529.28
2022-12-02T16:16:21.464Z,101530.22
2022-12-02T16:19:06.438Z,101528.47
2022-12-02T16:21:51.535Z,101537.72
2022-12-02T16:24:36.668Z,101538.47
2022-12-02T16:27:21.769Z,101532.06
2022-12-02T16:30:07.706Z,101536.69
2022-12-02T16:32:52.642Z,101536.22
2022-12-02T16:35:37.907Z,101532.19
2022-12-02T16:38:22.715Z,101526.09
2022-12-02T16:41:07.923Z,101534.06
2022-12-02T16:43:52.978Z,101538.16
2022-12-02T16:46:38.177Z,101534.50
2022-12-02T16:49:23.278Z,101539.13
2022-12-02T16:52:08.175Z,101539.13
2022-12-02T16:54:53.852Z,101537.63
2022-12-02T16:57:38.905Z,101541.56
2022-12-02T17:00:24.092Z,101543.16
2022-12-02T17:03:09.019Z,101533.22
2022-12-02T17:05:54.038Z,101543.22
2022-12-02T17:08:39.097Z,101538.09
2022-12-02T17:11:24.202Z,101538.28
2022-12-02T17:14:09.290Z,101540.34
2022-12-02T17:16:54.210Z,101543.31
2022-12-02T17:19:39.269Z,101544.25
2022-12-02T17:22:24.348Z,101545.19
2022-12-02T17:25:10.147Z,101545.47
2022-12-02T17:27:55.199Z,101554.28
2022-12-02T17:30:40.209Z,101550.25
2022-12-02T17:33:25.343Z,101545.19
2022-12-02T17:36:10.678Z,101546.41
2022-12-02T17:38:57.652Z,101555.09
2022-12-02T17:41:42.986Z,101552.47
2022-12-02T17:44:30.358Z,101553.50
2022-12-02T17:47:15.506Z,101555.34
2022-12-02T17:50:00.554Z,101563.50
2022-12-02T17:52:45.682Z,101563.13
2022-12-02T17:55:30.693Z,101561.06
2022-12-02T17:58:16.212Z,101570.06
2022-12-02T18:01:06.150Z,101572.28
2022-12-02T18:03:56.115Z,101564.16
2022-12-02T18:06:41.206Z,101571.25
2022-12-02T18:09:26.524Z,101566.66
2022-12-02T18:12:11.307Z,101569.84
2022-12-02T18:14:56.423Z,101564.63
2022-12-02T18:17:42.541Z,101565.25
2022-12-02T18:20:27.607Z,101561.41
2022-12-02T18:23:12.740Z,101571.78
2022-12-02T18:25:57.654Z,101573.91
2022-12-02T18:28:42.441Z,101573.09
2022-12-02T18:31:27.634Z,101577.22
2022-12-02T18:34:12.486Z,101571.69
2022-12-02T18:36:57.546Z,101574.75
2022-12-02T18:39:42.620Z,101570.28
2022-12-02T18:42:27.731Z,101563.19
2022-12-02T18:45:13.228Z,101564.28
2022-12-02T18:47:58.243Z,101561.41
2022-12-02T18:50:43.323Z,101557.13
2022-12-02T18:53:28.556Z,101557.41
2022-12-02T18:56:13.387Z,101555.69
2022-12-02T18:58:58.509Z,101555.59
2022-12-02T19:01:43.760Z,101555.78
2022-12-02T19:04:28.809Z,101558.88
2022-12-02T19:07:13.608Z,101557.00
2022-12-02T19:09:58.573Z,101551.88
2022-12-02T19:12:43.829Z,101546.66
2022-12-02T19:15:28.944Z,101554.19
2022-12-02T19:18:14.229Z,101557.41
2022-12-02T19:21:01.699Z,101557.00
2022-12-02T19:23:46.487Z,101553.16
2022-12-02T19:26:31.654Z,101548.22
2022-12-02T19:29:16.317Z,101553.88
2022-12-02T19:32:02.735Z,101553.53
2022-12-02T19:34:47.667Z,101554.28
2022-12-02T19:37:32.667Z,101549.81
2022-12-02T19:40:17.666Z,101556.91
2022-12-02T19:43:02.649Z,101549.16
2022-12-02T19:45:47.965Z,101560.81
2022-12-02T19:48:33.016Z,101561.75
2022-12-02T19:51:17.839Z,101560.38
2022-12-02T19:54:03.148Z,101564.19
2022-12-02T19:56:47.913Z,101557.53
2022-12-02T19:59:33.115Z,101561.06
2022-12-02T20:02:17.949Z,101564.03
2022-12-02T20:05:03.018Z,101571.13
2022-12-02T20:07:48.868Z,101556.13
2022-12-02T20:10:33.672Z,101563.97
2022-12-02T20:13:18.656Z,101558.91
2022-12-02T20:16:04.010Z,101559.47
2022-12-02T20:18:48.944Z,101558.63
2022-12-02T20:21:34.051Z,101557.13
2022-12-02T20:24:18.931Z,101556.69
2022-12-02T20:27:04.218Z,101554.16
2022-12-02T20:29:49.603Z,101561.91
2022-12-02T20:32:34.514Z,101553.94
2022-12-02T20:35:19.391Z,101559.69
2022-12-02T20:38:04.689Z,101554.19
2022-12-02T20:40:49.627Z,101561.28
2022-12-02T20:43:34.551Z,101557.06
2022-12-02T20:46:19.261Z,101563.16
2022-12-02T20:49:04.455Z,101557.75
2022-12-02T20:51:49.491Z,101556.41
2022-12-02T20:54:34.639Z,101553.22
2022-12-02T20:57:19.709Z,101546.97
2022-12-02T21:00:05.516Z,101554.16
2022-12-02T21:02:50.703Z,101554.56
2022-12-02T21:05:36.271Z,101554.41
2022-12-02T21:08:21.230Z,101552.97
2022-12-02T21:11:06.404Z,101558.19
2022-12-02T21:13:51.570Z,101559.47
2022-12-02T21:16:37.223Z,101557.88
2022-12-02T21:19:22.028Z,101561.41
2022-12-02T21:22:07.033Z,101560.56
2022-12-02T21:24:53.184Z,101556.34
2022-12-02T21:27:38.578Z,101560.66
2022-12-02T21:30:23.912Z,101566.91
2022-12-02T21:33:08.787Z,101559.56
2022-12-02T21:35:54.177Z,101561.41
2022-12-02T21:38:39.055Z,101562.41
2022-12-02T21:41:24.093Z,101563.25
2022-12-02T21:44:08.900Z,101566.66
2022-12-02T21:46:54.119Z,101564.38
2022-12-02T21:49:40.666Z,101567.22
2022-12-02T21:52:27.318Z,101570.84
2022-12-02T21:55:12.136Z,101568.25
2022-12-02T21:57:57.214Z,101566.16
2022-12-02T22:00:42.280Z,101566.31
2022-12-02T22:03:27.367Z,101569.16
2022-12-02T22:06:12.245Z,101565.38
2022-12-02T22:08:57.451Z,101569.59
2022-12-02T22:11:42.619Z,101570.72
2022-12-02T22:14:28.803Z,101574.34
2022-12-02T22:17:13.656Z,101578.97
2022-12-02T22:19:59.314Z,101577.00
2022-12-02T22:22:44.373Z,101580.56
2022-12-02T22:25:29.319Z,101584.09
2022-12-02T22:28:14.311Z,101583.34
2022-12-02T22:31:00.494Z,101576.09
2022-12-02T22:33:45.529Z,101578.28
2022-12-02T22:36:30.813Z,101572.72
2022-12-02T22:39:15.696Z,101577.00
2022-12-02T22:42:00.834Z,101576.69
2022-12-02T22:44:45.889Z,101566.81
2022-12-02T22:47:31.018Z,101574.94
2022-12-02T22:50:15.943Z,101577.44
2022-12-02T22:53:01.101Z,101578.97
2022-12-02T22:55:46.190Z,101572.16
2022-12-02T22:58:31.273Z,101567.25
2022-12-02T23:01:16.353Z,101590.09
2022-12-02T23:04:01.297Z,101579.41
2022-12-02T23:06:46.488Z,101573.81
2022-12-02T23:09:31.435Z,101574.81
2022-12-02T23:12:16.569Z,101579.13
2022-12-02T23:15:28.356Z,101580.63
2022-12-02T23:18:07.035Z,101577.88
2022-12-02T23:20:51.973Z,101584.44
2022-12-02T23:23:36.981Z,101576.41
2022-12-02T23:26:21.786Z,101576.63
2022-12-02T23:29:07.003Z,101576.19
2022-12-02T23:31:52.150Z,101573.47
2022-12-02T23:34:37.391Z,101580.97
2022-12-02T23:37:22.274Z,101568.75
2022-12-02T23:40:07.959Z,101567.84
2022-12-02T23:42:53.017Z,101562.88
2022-12-02T23:45:38.088Z,101567.34
2022-12-02T23:48:22.859Z,101566.56
2022-12-02T23:51:07.992Z,101564.13
2022-12-02T23:53:53.268Z,101560.69
2022-12-02T23:56:38.301Z,101556.47
2022-12-02T23:59:23.341Z,101559.84
